地図

経路データ

SID SEASON NUMBER BASIN SUBBASIN NAME ISO_TIME NATURE LAT LON WMO_WIND WMO_PRES WMO_AGENCY TRACK_TYPE DIST2LAND LANDFALL IFLAG USA_AGENCY USA_ATCF_ID USA_LAT USA_LON USA_RECORD USA_STATUS USA_WIND USA_PRES USA_SSHS USA_R34_NE USA_R34_SE USA_R34_SW USA_R34_NW USA_R50_NE USA_R50_SE USA_R50_SW USA_R50_NW USA_R64_NE USA_R64_SE USA_R64_SW USA_R64_NW USA_POCI USA_ROCI USA_RMW USA_EYE TOKYO_LAT TOKYO_LON TOKYO_GRADE TOKYO_WIND TOKYO_PRES TOKYO_R50_DIR TOKYO_R50_LONG TOKYO_R50_SHORT TOKYO_R30_DIR TOKYO_R30_LONG TOKYO_R30_SHORT TOKYO_LAND CMA_LAT CMA_LON CMA_CAT CMA_WIND CMA_PRES HKO_LAT HKO_LON HKO_CAT HKO_WIND HKO_PRES NEWDELHI_LAT NEWDELHI_LON NEWDELHI_GRADE NEWDELHI_WIND NEWDELHI_PRES NEWDELHI_CI NEWDELHI_DP NEWDELHI_POCI REUNION_LAT REUNION_LON REUNION_TYPE REUNION_WIND REUNION_PRES REUNION_TNUM REUNION_CI REUNION_RMW REUNION_R34_NE REUNION_R34_SE REUNION_R34_SW REUNION_R34_NW REUNION_R50_NE REUNION_R50_SE REUNION_R50_SW REUNION_R50_NW REUNION_R64_NE REUNION_R64_SE REUNION_R64_SW REUNION_R64_NW BOM_LAT BOM_LON BOM_TYPE BOM_WIND BOM_PRES BOM_TNUM BOM_CI BOM_RMW BOM_R34_NE BOM_R34_SE BOM_R34_SW BOM_R34_NW BOM_R50_NE BOM_R50_SE BOM_R50_SW BOM_R50_NW BOM_R64_NE BOM_R64_SE BOM_R64_SW BOM_R64_NW BOM_ROCI BOM_POCI BOM_EYE BOM_POS_METHOD BOM_PRES_METHOD NADI_LAT NADI_LON NADI_CAT NADI_WIND NADI_PRES WELLINGTON_LAT WELLINGTON_LON WELLINGTON_WIND WELLINGTON_PRES DS824_LAT DS824_LON DS824_STAGE DS824_WIND DS824_PRES TD9636_LAT TD9636_LON TD9636_STAGE TD9636_WIND TD9636_PRES TD9635_LAT TD9635_LON TD9635_WIND TD9635_PRES TD9635_ROCI NEUMANN_LAT NEUMANN_LON NEUMANN_CLASS NEUMANN_WIND NEUMANN_PRES MLC_LAT MLC_LON MLC_CLASS MLC_WIND MLC_PRES USA_GUST BOM_GUST BOM_GUST_PER REUNION_GUST REUNION_GUST_PER USA_SEAHGT USA_SEARAD_NE USA_SEARAD_SE USA_SEARAD_SW USA_SEARAD_NW STORM_SPEED STORM_DIR
2015258N12320 2015 77 NA NA NOT_NAMED 2015-09-15 00:00:00 DS 11.5000 -40.3000 20 1011 hurdat_atl main 1455 1425 O_____________ hurdat_atl AL092015 11.5000 -40.3000 LO 20 1011 -3 1015 200 60 30 8 286
2015258N12320 2015 77 NA NA NOT_NAMED 2015-09-15 03:00:00 DS 11.6101 -40.6924 main 1425 1396 P_____________ AL092015 11.6101 -40.6924 LO 20 1011 -3 1015 200 60 8 284
2015258N12320 2015 77 NA NA NOT_NAMED 2015-09-15 06:00:00 DS 11.7000 -41.1000 20 1011 hurdat_atl main 1396 1367 O_____________ hurdat_atl AL092015 11.7000 -41.1000 LO 20 1011 -3 1015 200 60 8 281
2015258N12320 2015 77 NA NA NOT_NAMED 2015-09-15 09:00:00 DS 11.7700 -41.5226 main 1367 1340 P_____________ AL092015 11.7700 -41.5226 LO 20 1011 -3 1015 200 60 8 284
2015258N12320 2015 77 NA NA NOT_NAMED 2015-09-15 12:00:00 DS 11.9000 -41.9000 20 1011 hurdat_atl main 1340 1329 O_____________ hurdat_atl AL092015 11.9000 -41.9000 LO 20 1011 -3 1015 200 60 35 8 301
2015258N12320 2015 77 NA NA NOT_NAMED 2015-09-15 15:00:00 DS 12.1549 -42.1875 main 1336 1328 P_____________ AL092015 12.1549 -42.1875 LO 20 1011 -3 1015 200 60 8 321
2015258N12320 2015 77 NA NA NOT_NAMED 2015-09-15 18:00:00 DS 12.5000 -42.4000 20 1011 hurdat_atl main 1342 1342 O_____________ hurdat_atl AL092015 12.5000 -42.4000 LO 20 1011 -3 1015 200 60 35 8 334
2015258N12320 2015 77 NA NA NOT_NAMED 2015-09-15 21:00:00 DS 12.8924 -42.5576 main 1357 1357 P_____________ AL092015 12.8924 -42.5576 LO 22 1010 -3 1014 190 60 9 340
2015258N12320 2015 77 NA NA NOT_NAMED 2015-09-16 00:00:00 DS 13.3000 -42.7000 25 1010 hurdat_atl main 1381 1381 O_____________ hurdat_atl AL092015 13.3000 -42.7000 LO 25 1010 -3 1014 180 60 35 8 338
2015258N12320 2015 77 NA NA NOT_NAMED 2015-09-16 03:00:00 DS 13.6725 -42.8776 main 1399 1399 P_____________ AL092015 13.6725 -42.8776 LO 25 1009 -3 1013 180 70 8 331
2015258N12320 2015 77 NA NA NOT_NAMED 2015-09-16 06:00:00 DS 14.0000 -43.1000 25 1009 hurdat_atl main 1410 1410 O_____________ hurdat_atl AL092015 14.0000 -43.1000 LO 25 1009 -3 1013 180 80 35 8 321
2015258N12320 2015 77 NA NA NOT_NAMED 2015-09-16 09:00:00 DS 14.2650 -43.3776 main 1416 1409 P_____________ AL092015 14.2650 -43.3776 LO 25 1009 -3 1012 180 80 8 311
2015258N12320 2015 77 NA NA NOT_NAMED 2015-09-16 12:00:00 TS 14.5000 -43.7000 25 1009 hurdat_atl main 1414 1407 O_____________ hurdat_atl AL092015 14.5000 -43.7000 TD 25 1009 -1 1012 180 80 8 307
2015258N12320 2015 77 NA NA NOT_NAMED 2015-09-16 15:00:00 TS 14.7651 -44.0649 main 1416 1410 P_____________ AL092015 14.7651 -44.0649 TD 25 1009 -1 1012 180 80 8 306
2015258N12320 2015 77 NA NA NOT_NAMED 2015-09-16 18:00:00 TS 15.0000 -44.4000 25 1009 hurdat_atl main 1416 1410 O_____________ hurdat_atl AL092015 15.0000 -44.4000 TD 25 1009 -1 1012 180 80 35 7 306
2015258N12320 2015 77 NA NA NOT_NAMED 2015-09-16 21:00:00 TS 15.1649 -44.6376 main 1421 1414 P_____________ AL092015 15.1649 -44.6376 TD 25 1008 -1 1012 180 80 5 308
2015258N12320 2015 77 NA NA NOT_NAMED 2015-09-17 00:00:00 TS 15.3000 -44.8000 25 1008 hurdat_atl main 1416 1416 O_____________ hurdat_atl AL092015 15.3000 -44.8000 TD 25 1008 -1 1012 180 80 35 4 316
2015258N12320 2015 77 NA NA NOT_NAMED 2015-09-17 03:00:00 TS 15.4500 -44.9225 main 1419 1419 P_____________ AL092015 15.4500 -44.9225 TD 27 1007 -1 1011 180 75 4 327
2015258N12320 2015 77 NA NA NOT_NAMED 2015-09-17 06:00:00 TS 15.6000 -45.0000 30 1006 hurdat_atl main 1430 1430 O_____________ hurdat_atl AL092015 15.6000 -45.0000 TD 30 1006 -1 1011 180 70 40 3 335
2015258N12320 2015 77 NA NA NOT_NAMED 2015-09-17 09:00:00 TS 15.7425 -45.0650 main 1433 1433 P_____________ AL092015 15.7425 -45.0650 TD 30 1006 -1 1011 180 70 3 343
2015258N12320 2015 77 NA NA NOT_NAMED 2015-09-17 12:00:00 TS 15.9000 -45.1000 30 1006 hurdat_atl main 1451 1451 O_____________ hurdat_atl AL092015 15.9000 -45.1000 TD 30 1006 -1 1011 180 70 40 3 353
2015258N12320 2015 77 NA NA NOT_NAMED 2015-09-17 15:00:00 TS 16.0850 -45.1000 main 1469 1469 P_____________ AL092015 16.0850 -45.1000 TD 27 1006 -1 1011 180 70 4 0
2015258N12320 2015 77 NA NA NOT_NAMED 2015-09-17 18:00:00 TS 16.3000 -45.1000 25 1007 hurdat_atl main 1488 1488 O_____________ hurdat_atl AL092015 16.3000 -45.1000 TD 25 1007 -1 1011 180 70 35 5 357
2015258N12320 2015 77 NA NA NOT_NAMED 2015-09-17 21:00:00 TS 16.5424 -45.1051 main 1506 1506 P_____________ AL092015 16.5424 -45.1051 TD 25 1007 -1 1011 180 70 5 349
2015258N12320 2015 77 NA NA NOT_NAMED 2015-09-18 00:00:00 TS 16.8000 -45.2000 25 1007 hurdat_atl main 1529 1529 O_____________ hurdat_atl AL092015 16.8000 -45.2000 TD 25 1007 -1 1011 180 70 35 6 328
2015258N12320 2015 77 NA NA NOT_NAMED 2015-09-18 03:00:00 TS 17.0650 -45.4474 main 1546 1535 P_____________ AL092015 17.0650 -45.4474 TD 25 1007 -1 1010 180 70 8 311
2015258N12320 2015 77 NA NA NOT_NAMED 2015-09-18 06:00:00 TS 17.3000 -45.8000 25 1007 hurdat_atl main 1544 1538 O_____________ hurdat_atl AL092015 17.3000 -45.8000 TD 25 1007 -1 1010 180 70 35 8 299
2015258N12320 2015 77 NA NA NOT_NAMED 2015-09-18 09:00:00 TS 17.4650 -46.1926 main 1543 1533 P_____________ AL092015 17.4650 -46.1926 TD 25 1007 -1 1009 180 70 8 291
2015258N12320 2015 77 NA NA NOT_NAMED 2015-09-18 12:00:00 TS 17.6000 -46.6000 25 1007 hurdat_atl main 1533 1529 O_____________ hurdat_atl AL092015 17.6000 -46.6000 TD 25 1007 -1 1009 180 70 35 8 292
2015258N12320 2015 77 NA NA NOT_NAMED 2015-09-18 15:00:00 TS 17.7574 -46.9500 main 1535 1526 P_____________ AL092015 17.7574 -46.9500 TD 25 1007 -1 1009 180 70 7 294
2015258N12320 2015 77 NA NA NOT_NAMED 2015-09-18 18:00:00 TS 17.9000 -47.3000 25 1007 hurdat_atl main 1532 1524 O_____________ hurdat_atl AL092015 17.9000 -47.3000 TD 25 1007 -1 1010 180 70 35 8 289
2015258N12320 2015 77 NA NA NOT_NAMED 2015-09-18 21:00:00 TS 18.0075 -47.7001 main 1526 1517 P_____________ AL092015 18.0075 -47.7001 TD 25 1007 -1 1010 180 70 8 285
2015258N12320 2015 77 NA NA NOT_NAMED 2015-09-19 00:00:00 TS 18.1000 -48.1000 25 1008 hurdat_atl main 1518 1508 O_____________ hurdat_atl AL092015 18.1000 -48.1000 TD 25 1008 -1 1010 180 70 35 8 285
2015258N12320 2015 77 NA NA NOT_NAMED 2015-09-19 03:00:00 TS 18.1999 -48.4650 main 1509 1505 P_____________ AL092015 18.1999 -48.4650 TD 25 1008 -1 1010 180 70 7 287
2015258N12320 2015 77 NA NA NOT_NAMED 2015-09-19 06:00:00 TS 18.3000 -48.8000 25 1009 hurdat_atl main 1507 1502 O_____________ hurdat_atl AL092015 18.3000 -48.8000 TD 25 1009 -1 1010 180 70 35 6 288
2015258N12320 2015 77 NA NA NOT_NAMED 2015-09-19 09:00:00 TS 18.4001 -49.1074 main 1505 1501 P_____________ AL092015 18.4001 -49.1074 TD 25 1009 -1 1010 180 70 6 289
2015258N12320 2015 77 NA NA NOT_NAMED 2015-09-19 12:00:00 TS 18.5000 -49.4000 25 1009 hurdat_atl main 1503 O_____________ hurdat_atl AL092015 18.5000 -49.4000 TD 25 1009 -1 1010 180 70 35 6 290

IBTrACS Databaseについて

本データベースは、米国NOAAが公開する1842年以降の世界の熱帯低気圧のベストトラックデータアーカイブInternational Best Track Archive for Climate Stewardship (IBTrACS)を、ウェブで閲覧しやすい形式に変換したものです。

最終更新日:2021-10-19